sensor_id;sensor_type;location;lat;lon;timestamp;P1;durP1;ratioP1;P2;durP2;ratioP2
21416;SDS011;10869;52.238;10.716;2023-02-18T04:05:26;16.27;;;4.00;;
21416;SDS011;10869;52.238;10.716;2023-02-18T04:07:52;13.70;;;2.97;;
21416;SDS011;10869;52.238;10.716;2023-02-18T04:10:18;17.10;;;3.43;;
21416;SDS011;10869;52.238;10.716;2023-02-18T04:12:45;14.97;;;2.47;;
21416;SDS011;10869;52.238;10.716;2023-02-18T04:15:11;11.07;;;2.00;;
21416;SDS011;10869;52.238;10.716;2023-02-18T04:17:37;14.40;;;3.47;;
21416;SDS011;10869;52.238;10.716;2023-02-18T04:20:03;19.03;;;3.27;;
21416;SDS011;10869;52.238;10.716;2023-02-18T04:22:30;12.20;;;2.03;;
21416;SDS011;10869;52.238;10.716;2023-02-18T04:24:56;10.97;;;1.90;;
21416;SDS011;10869;52.238;10.716;2023-02-18T04:27:22;17.43;;;2.90;;
21416;SDS011;10869;52.238;10.716;2023-02-18T04:29:47;13.80;;;2.47;;
21416;SDS011;10869;52.238;10.716;2023-02-18T04:32:13;11.83;;;2.80;;
21416;SDS011;10869;52.238;10.716;2023-02-18T04:34:39;11.90;;;2.33;;
21416;SDS011;10869;52.238;10.716;2023-02-18T04:37:04;11.57;;;2.20;;
21416;SDS011;10869;52.238;10.716;2023-02-18T04:39:30;14.60;;;3.00;;
21416;SDS011;10869;52.238;10.716;2023-02-18T04:41:56;14.10;;;2.50;;
21416;SDS011;10869;52.238;10.716;2023-02-18T04:44:22;21.27;;;2.73;;
21416;SDS011;10869;52.238;10.716;2023-02-18T04:46:47;15.77;;;2.80;;
21416;SDS011;10869;52.238;10.716;2023-02-18T04:49:13;13.10;;;2.60;;
21416;SDS011;10869;52.238;10.716;2023-02-18T04:51:39;15.37;;;2.40;;
21416;SDS011;10869;52.238;10.716;2023-02-18T04:54:04;16.30;;;3.50;;
21416;SDS011;10869;52.238;10.716;2023-02-18T04:56:30;17.10;;;3.10;;
21416;SDS011;10869;52.238;10.716;2023-02-18T04:58:56;15.90;;;3.10;;
21416;SDS011;10869;52.238;10.716;2023-02-18T05:01:21;14.80;;;2.67;;
21416;SDS011;10869;52.238;10.716;2023-02-18T05:03:47;17.87;;;3.20;;
21416;SDS011;10869;52.238;10.716;2023-02-18T05:06:13;14.93;;;2.63;;
21416;SDS011;10869;52.238;10.716;2023-02-18T05:08:38;13.20;;;3.60;;
21416;SDS011;10869;52.238;10.716;2023-02-18T05:11:05;14.90;;;4.23;;
21416;SDS011;10869;52.238;10.716;2023-02-18T05:13:32;18.13;;;3.87;;
21416;SDS011;10869;52.238;10.716;2023-02-18T05:15:57;29.20;;;4.83;;
21416;SDS011;10869;52.238;10.716;2023-02-18T05:18:23;14.30;;;4.20;;
21416;SDS011;10869;52.238;10.716;2023-02-18T05:20:49;14.17;;;4.17;;
21416;SDS011;10869;52.238;10.716;2023-02-18T05:23:15;17.87;;;5.40;;
21416;SDS011;10869;52.238;10.716;2023-02-18T05:25:42;21.17;;;5.87;;
21416;SDS011;10869;52.238;10.716;2023-02-18T05:28:08;21.97;;;6.30;;
21416;SDS011;10869;52.238;10.716;2023-02-18T05:30:34;21.27;;;6.43;;
21416;SDS011;10869;52.238;10.716;2023-02-18T05:32:59;19.13;;;6.10;;
21416;SDS011;10869;52.238;10.716;2023-02-18T05:35:25;25.10;;;6.13;;
21416;SDS011;10869;52.238;10.716;2023-02-18T05:37:51;23.00;;;7.27;;
21416;SDS011;10869;52.238;10.716;2023-02-18T05:40:16;21.90;;;8.23;;
21416;SDS011;10869;52.238;10.716;2023-02-18T05:42:42;27.67;;;8.77;;
21416;SDS011;10869;52.238;10.716;2023-02-18T05:45:08;27.13;;;8.93;;
21416;SDS011;10869;52.238;10.716;2023-02-18T05:47:34;21.23;;;7.80;;
21416;SDS011;10869;52.238;10.716;2023-02-18T05:50:00;28.60;;;9.87;;
21416;SDS011;10869;52.238;10.716;2023-02-18T05:52:25;31.50;;;11.43;;
21416;SDS011;10869;52.238;10.716;2023-02-18T05:54:51;24.43;;;11.37;;
21416;SDS011;10869;52.238;10.716;2023-02-18T05:57:17;30.10;;;11.97;;
21416;SDS011;10869;52.238;10.716;2023-02-18T05:59:43;35.03;;;13.53;;
21416;SDS011;10869;52.238;10.716;2023-02-18T06:02:09;30.73;;;13.60;;
21416;SDS011;10869;52.238;10.716;2023-02-18T06:04:34;32.80;;;14.47;;
21416;SDS011;10869;52.238;10.716;2023-02-18T06:10:22;39.07;;;14.90;;
21416;SDS011;10869;52.238;10.716;2023-02-18T06:12:48;38.63;;;16.17;;
21416;SDS011;10869;52.238;10.716;2023-02-18T06:15:14;35.80;;;15.90;;
21416;SDS011;10869;52.238;10.716;2023-02-18T06:17:39;39.57;;;16.00;;
21416;SDS011;10869;52.238;10.716;2023-02-18T06:20:05;42.00;;;18.23;;
21416;SDS011;10869;52.238;10.716;2023-02-18T06:22:33;44.67;;;18.13;;
21416;SDS011;10869;52.238;10.716;2023-02-18T06:24:58;36.50;;;17.23;;
21416;SDS011;10869;52.238;10.716;2023-02-18T06:27:24;32.37;;;16.03;;
21416;SDS011;10869;52.238;10.716;2023-02-18T06:29:50;48.87;;;20.47;;
21416;SDS011;10869;52.238;10.716;2023-02-18T06:32:15;46.63;;;20.93;;
21416;SDS011;10869;52.238;10.716;2023-02-18T06:34:41;38.93;;;19.13;;
21416;SDS011;10869;52.238;10.716;2023-02-18T06:37:07;41.40;;;19.80;;
21416;SDS011;10869;52.238;10.716;2023-02-18T06:39:33;52.50;;;21.70;;
21416;SDS011;10869;52.238;10.716;2023-02-18T06:41:59;49.67;;;20.87;;
21416;SDS011;10869;52.238;10.716;2023-02-18T06:44:25;42.70;;;19.43;;
21416;SDS011;10869;52.238;10.716;2023-02-18T06:49:26;41.80;;;17.63;;
21416;SDS011;10869;52.238;10.716;2023-02-18T06:51:54;32.80;;;16.63;;
21416;SDS011;10869;52.238;10.716;2023-02-18T06:54:23;32.80;;;16.33;;
21416;SDS011;10869;52.238;10.716;2023-02-18T06:56:52;30.47;;;15.97;;
21416;SDS011;10869;52.238;10.716;2023-02-18T06:59:18;33.30;;;16.67;;
21416;SDS011;10869;52.238;10.716;2023-02-18T07:01:43;30.13;;;15.57;;
21416;SDS011;10869;52.238;10.716;2023-02-18T07:04:09;33.33;;;18.37;;
21416;SDS011;10869;52.238;10.716;2023-02-18T07:06:43;30.80;;;16.03;;
21416;SDS011;10869;52.238;10.716;2023-02-18T07:09:09;28.67;;;16.13;;
21416;SDS011;10869;52.238;10.716;2023-02-18T07:11:35;35.80;;;17.23;;
21416;SDS011;10869;52.238;10.716;2023-02-18T07:14:00;32.13;;;17.07;;
21416;SDS011;10869;52.238;10.716;2023-02-18T07:16:26;45.27;;;19.87;;
21416;SDS011;10869;52.238;10.716;2023-02-18T07:22:14;39.70;;;19.47;;
21416;SDS011;10869;52.238;10.716;2023-02-18T07:28:02;47.20;;;22.17;;
21416;SDS011;10869;52.238;10.716;2023-02-18T07:33:49;65.30;;;27.47;;
21416;SDS011;10869;52.238;10.716;2023-02-18T07:36:15;65.30;;;27.73;;
21416;SDS011;10869;52.238;10.716;2023-02-18T07:42:03;60.93;;;26.10;;
21416;SDS011;10869;52.238;10.716;2023-02-18T07:47:51;61.50;;;27.20;;
21416;SDS011;10869;52.238;10.716;2023-02-18T07:50:17;62.10;;;29.00;;
21416;SDS011;10869;52.238;10.716;2023-02-18T07:52:42;62.53;;;27.53;;
21416;SDS011;10869;52.238;10.716;2023-02-18T07:55:11;58.53;;;24.83;;
21416;SDS011;10869;52.238;10.716;2023-02-18T07:57:36;65.63;;;26.63;;
21416;SDS011;10869;52.238;10.716;2023-02-18T08:00:21;45.07;;;21.33;;
21416;SDS011;10869;52.238;10.716;2023-02-18T08:02:47;43.83;;;20.27;;
21416;SDS011;10869;52.238;10.716;2023-02-18T08:05:19;55.77;;;21.70;;
21416;SDS011;10869;52.238;10.716;2023-02-18T08:07:45;51.50;;;21.93;;
21416;SDS011;10869;52.238;10.716;2023-02-18T08:10:15;45.33;;;20.17;;
21416;SDS011;10869;52.238;10.716;2023-02-18T08:12:44;34.03;;;16.23;;
21416;SDS011;10869;52.238;10.716;2023-02-18T08:18:31;52.07;;;21.90;;
21416;SDS011;10869;52.238;10.716;2023-02-18T08:21:02;51.17;;;22.37;;
21416;SDS011;10869;52.238;10.716;2023-02-18T08:23:28;37.77;;;17.87;;
21416;SDS011;10869;52.238;10.716;2023-02-18T08:25:57;40.20;;;19.67;;
21416;SDS011;10869;52.238;10.716;2023-02-18T08:28:32;45.27;;;19.10;;
21416;SDS011;10869;52.238;10.716;2023-02-18T08:31:01;37.40;;;17.37;;
21416;SDS011;10869;52.238;10.716;2023-02-18T08:36:51;50.53;;;18.73;;
21416;SDS011;10869;52.238;10.716;2023-02-18T08:42:39;40.73;;;17.93;;
21416;SDS011;10869;52.238;10.716;2023-02-18T08:45:05;48.00;;;18.37;;
21416;SDS011;10869;52.238;10.716;2023-02-18T08:50:53;37.87;;;16.80;;
21416;SDS011;10869;52.238;10.716;2023-02-18T08:56:41;41.47;;;17.73;;
21416;SDS011;10869;52.238;10.716;2023-02-18T08:59:06;37.77;;;16.90;;
21416;SDS011;10869;52.238;10.716;2023-02-18T09:01:32;35.17;;;15.13;;
21416;SDS011;10869;52.238;10.716;2023-02-18T09:03:58;33.13;;;14.40;;
21416;SDS011;10869;52.238;10.716;2023-02-18T09:06:24;36.50;;;16.63;;
21416;SDS011;10869;52.238;10.716;2023-02-18T09:08:50;33.23;;;15.73;;
21416;SDS011;10869;52.238;10.716;2023-02-18T09:14:38;24.30;;;11.63;;
21416;SDS011;10869;52.238;10.716;2023-02-18T09:17:04;19.23;;;8.63;;
21416;SDS011;10869;52.238;10.716;2023-02-18T09:19:29;22.07;;;11.63;;
21416;SDS011;10869;52.238;10.716;2023-02-18T09:21:59;24.57;;;11.37;;
21416;SDS011;10869;52.238;10.716;2023-02-18T09:24:26;17.57;;;8.50;;
21416;SDS011;10869;52.238;10.716;2023-02-18T09:26:56;25.77;;;10.63;;
21416;SDS011;10869;52.238;10.716;2023-02-18T09:29:22;20.13;;;9.80;;
21416;SDS011;10869;52.238;10.716;2023-02-18T09:31:47;17.37;;;7.77;;
21416;SDS011;10869;52.238;10.716;2023-02-18T09:34:13;17.13;;;6.90;;
21416;SDS011;10869;52.238;10.716;2023-02-18T09:36:39;11.93;;;6.40;;
21416;SDS011;10869;52.238;10.716;2023-02-18T09:39:05;15.23;;;9.00;;
21416;SDS011;10869;52.238;10.716;2023-02-18T09:41:37;20.57;;;10.43;;
21416;SDS011;10869;52.238;10.716;2023-02-18T09:44:17;12.93;;;6.13;;
21416;SDS011;10869;52.238;10.716;2023-02-18T09:46:59;12.17;;;6.47;;
21416;SDS011;10869;52.238;10.716;2023-02-18T09:49:32;11.90;;;6.13;;
21416;SDS011;10869;52.238;10.716;2023-02-18T09:52:12;14.93;;;8.33;;
21416;SDS011;10869;52.238;10.716;2023-02-18T09:54:47;8.57;;;4.77;;
21416;SDS011;10869;52.238;10.716;2023-02-18T09:57:26;14.37;;;7.00;;
21416;SDS011;10869;52.238;10.716;2023-02-18T10:00:02;15.27;;;8.50;;
21416;SDS011;10869;52.238;10.716;2023-02-18T10:02:30;8.03;;;3.90;;
21416;SDS011;10869;52.238;10.716;2023-02-18T10:05:00;11.73;;;4.27;;
21416;SDS011;10869;52.238;10.716;2023-02-18T10:10:49;9.17;;;3.60;;
21416;SDS011;10869;52.238;10.716;2023-02-18T10:13:16;8.27;;;3.53;;
21416;SDS011;10869;52.238;10.716;2023-02-18T10:15:44;7.83;;;3.40;;
21416;SDS011;10869;52.238;10.716;2023-02-18T10:20:49;10.60;;;4.70;;
21416;SDS011;10869;52.238;10.716;2023-02-18T10:23:17;9.37;;;4.47;;
21416;SDS011;10869;52.238;10.716;2023-02-18T10:29:15;6.37;;;3.10;;
21416;SDS011;10869;52.238;10.716;2023-02-18T10:31:44;6.63;;;3.63;;
21416;SDS011;10869;52.238;10.716;2023-02-18T10:34:18;10.10;;;4.43;;
21416;SDS011;10869;52.238;10.716;2023-02-18T10:42:39;4.07;;;1.63;;
21416;SDS011;10869;52.238;10.716;2023-02-18T10:50:44;3.00;;;1.13;;
21416;SDS011;10869;52.238;10.716;2023-02-18T10:53:12;2.30;;;1.17;;
21416;SDS011;10869;52.238;10.716;2023-02-18T10:55:57;2.70;;;1.37;;
21416;SDS011;10869;52.238;10.716;2023-02-18T11:00:52;3.20;;;1.30;;
21416;SDS011;10869;52.238;10.716;2023-02-18T11:03:19;3.07;;;1.53;;
21416;SDS011;10869;52.238;10.716;2023-02-18T11:06:03;4.00;;;1.90;;
21416;SDS011;10869;52.238;10.716;2023-02-18T11:08:40;6.57;;;2.83;;
21416;SDS011;10869;52.238;10.716;2023-02-18T11:11:11;4.77;;;1.63;;
21416;SDS011;10869;52.238;10.716;2023-02-18T11:14:07;2.60;;;1.40;;
21416;SDS011;10869;52.238;10.716;2023-02-18T11:16:41;2.77;;;1.60;;
21416;SDS011;10869;52.238;10.716;2023-02-18T11:19:31;8.33;;;3.63;;
21416;SDS011;10869;52.238;10.716;2023-02-18T11:22:15;3.77;;;1.80;;
21416;SDS011;10869;52.238;10.716;2023-02-18T11:25:26;3.57;;;1.90;;
21416;SDS011;10869;52.238;10.716;2023-02-18T11:28:01;4.60;;;2.27;;
21416;SDS011;10869;52.238;10.716;2023-02-18T11:30:43;5.70;;;3.27;;
21416;SDS011;10869;52.238;10.716;2023-02-18T11:39:24;7.53;;;2.00;;
21416;SDS011;10869;52.238;10.716;2023-02-18T11:52:41;6.47;;;3.73;;
21416;SDS011;10869;52.238;10.716;2023-02-18T11:55:18;4.30;;;2.60;;
21416;SDS011;10869;52.238;10.716;2023-02-18T11:58:08;7.03;;;3.20;;
21416;SDS011;10869;52.238;10.716;2023-02-18T12:00:39;4.90;;;2.40;;
21416;SDS011;10869;52.238;10.716;2023-02-18T12:05:51;5.10;;;2.53;;
21416;SDS011;10869;52.238;10.716;2023-02-18T12:08:26;5.20;;;2.80;;
21416;SDS011;10869;52.238;10.716;2023-02-18T12:11:03;6.73;;;3.40;;
21416;SDS011;10869;52.238;10.716;2023-02-18T12:13:42;5.40;;;2.67;;
21416;SDS011;10869;52.238;10.716;2023-02-18T12:19:26;5.03;;;1.80;;
21416;SDS011;10869;52.238;10.716;2023-02-18T12:22:26;5.90;;;2.57;;
21416;SDS011;10869;52.238;10.716;2023-02-18T12:29:04;2.90;;;1.80;;
21416;SDS011;10869;52.238;10.716;2023-02-18T12:37:59;2.60;;;1.80;;
21416;SDS011;10869;52.238;10.716;2023-02-18T12:52:47;5.73;;;2.83;;
21416;SDS011;10869;52.238;10.716;2023-02-18T13:07:27;4.43;;;2.20;;
21416;SDS011;10869;52.238;10.716;2023-02-18T13:18:37;4.20;;;2.07;;
21416;SDS011;10869;52.238;10.716;2023-02-18T13:21:11;4.50;;;2.67;;
21416;SDS011;10869;52.238;10.716;2023-02-18T13:33:21;4.17;;;2.20;;
21416;SDS011;10869;52.238;10.716;2023-02-18T13:39:15;4.83;;;2.80;;
21416;SDS011;10869;52.238;10.716;2023-02-18T13:48:29;4.87;;;2.20;;
21416;SDS011;10869;52.238;10.716;2023-02-18T13:51:09;5.40;;;2.50;;
21416;SDS011;10869;52.238;10.716;2023-02-18T13:57:16;3.77;;;2.17;;
21416;SDS011;10869;52.238;10.716;2023-02-18T13:59:46;5.13;;;2.47;;
21416;SDS011;10869;52.238;10.716;2023-02-18T14:33:41;5.13;;;2.30;;
21416;SDS011;10869;52.238;10.716;2023-02-18T14:44:53;5.73;;;2.57;;
21416;SDS011;10869;52.238;10.716;2023-02-18T14:48:22;6.80;;;2.77;;
21416;SDS011;10869;52.238;10.716;2023-02-18T14:50:36;4.60;;;2.70;;
21416;SDS011;10869;52.238;10.716;2023-02-18T14:53:06;6.87;;;2.93;;
21416;SDS011;10869;52.238;10.716;2023-02-18T14:55:43;5.97;;;3.23;;
21416;SDS011;10869;52.238;10.716;2023-02-18T15:01:25;5.67;;;2.73;;
21416;SDS011;10869;52.238;10.716;2023-02-18T15:03:53;6.97;;;3.27;;
21416;SDS011;10869;52.238;10.716;2023-02-18T15:06:41;4.87;;;2.90;;
21416;SDS011;10869;52.238;10.716;2023-02-18T15:09:19;7.73;;;3.50;;
21416;SDS011;10869;52.238;10.716;2023-02-18T15:14:20;6.33;;;3.40;;
21416;SDS011;10869;52.238;10.716;2023-02-18T15:16:49;7.20;;;4.00;;
21416;SDS011;10869;52.238;10.716;2023-02-18T15:19:15;7.97;;;3.93;;
21416;SDS011;10869;52.238;10.716;2023-02-18T15:21:44;9.63;;;4.93;;
21416;SDS011;10869;52.238;10.716;2023-02-18T15:26:59;7.37;;;3.77;;
21416;SDS011;10869;52.238;10.716;2023-02-18T15:29:29;9.17;;;4.70;;
21416;SDS011;10869;52.238;10.716;2023-02-18T15:31:59;6.17;;;3.13;;
21416;SDS011;10869;52.238;10.716;2023-02-18T15:34:36;12.00;;;4.90;;
21416;SDS011;10869;52.238;10.716;2023-02-18T15:37:06;7.53;;;3.43;;
21416;SDS011;10869;52.238;10.716;2023-02-18T15:39:35;8.40;;;4.00;;
21416;SDS011;10869;52.238;10.716;2023-02-18T15:44:57;7.73;;;3.90;;
21416;SDS011;10869;52.238;10.716;2023-02-18T15:47:41;8.50;;;3.57;;
21416;SDS011;10869;52.238;10.716;2023-02-18T15:50:17;6.60;;;3.30;;
21416;SDS011;10869;52.238;10.716;2023-02-18T15:56:11;10.73;;;3.80;;
21416;SDS011;10869;52.238;10.716;2023-02-18T15:59:37;10.30;;;3.40;;
21416;SDS011;10869;52.238;10.716;2023-02-18T16:04:39;8.07;;;3.40;;
21416;SDS011;10869;52.238;10.716;2023-02-18T16:07:29;10.53;;;3.57;;
21416;SDS011;10869;52.238;10.716;2023-02-18T16:15:22;10.37;;;3.27;;
21416;SDS011;10869;52.238;10.716;2023-02-18T16:27:36;9.40;;;3.73;;
21416;SDS011;10869;52.238;10.716;2023-02-18T16:30:29;10.33;;;4.33;;
21416;SDS011;10869;52.238;10.716;2023-02-18T16:33:10;13.20;;;5.73;;
21416;SDS011;10869;52.238;10.716;2023-02-18T16:38:59;8.80;;;4.23;;
21416;SDS011;10869;52.238;10.716;2023-02-18T16:41:27;17.00;;;5.80;;
21416;SDS011;10869;52.238;10.716;2023-02-18T16:43:54;15.83;;;6.00;;
21416;SDS011;10869;52.238;10.716;2023-02-18T16:46:30;16.57;;;7.20;;
21416;SDS011;10869;52.238;10.716;2023-02-18T16:48:56;13.87;;;5.43;;
21416;SDS011;10869;52.238;10.716;2023-02-18T16:51:25;18.13;;;7.77;;
21416;SDS011;10869;52.238;10.716;2023-02-18T16:54:04;23.07;;;9.57;;
21416;SDS011;10869;52.238;10.716;2023-02-18T16:56:43;15.80;;;7.20;;
21416;SDS011;10869;52.238;10.716;2023-02-18T16:59:48;13.80;;;5.20;;
21416;SDS011;10869;52.238;10.716;2023-02-18T17:02:18;12.37;;;5.80;;
21416;SDS011;10869;52.238;10.716;2023-02-18T17:04:47;14.50;;;5.60;;
21416;SDS011;10869;52.238;10.716;2023-02-18T17:07:24;10.17;;;4.90;;
21416;SDS011;10869;52.238;10.716;2023-02-18T17:09:53;14.30;;;4.97;;
21416;SDS011;10869;52.238;10.716;2023-02-18T17:12:28;15.17;;;5.80;;
21416;SDS011;10869;52.238;10.716;2023-02-18T17:15:25;13.30;;;5.10;;
21416;SDS011;10869;52.238;10.716;2023-02-18T17:18:02;11.97;;;5.30;;
21416;SDS011;10869;52.238;10.716;2023-02-18T17:20:29;13.40;;;4.90;;
21416;SDS011;10869;52.238;10.716;2023-02-18T17:22:58;13.93;;;4.70;;
21416;SDS011;10869;52.238;10.716;2023-02-18T17:25:39;12.90;;;4.53;;
21416;SDS011;10869;52.238;10.716;2023-02-18T17:28:06;12.63;;;4.83;;
21416;SDS011;10869;52.238;10.716;2023-02-18T17:30:37;11.03;;;4.33;;
21416;SDS011;10869;52.238;10.716;2023-02-18T17:33:04;12.07;;;4.53;;
21416;SDS011;10869;52.238;10.716;2023-02-18T17:35:40;13.83;;;4.67;;
21416;SDS011;10869;52.238;10.716;2023-02-18T17:38:10;11.40;;;4.23;;
21416;SDS011;10869;52.238;10.716;2023-02-18T17:40:38;16.60;;;5.83;;
21416;SDS011;10869;52.238;10.716;2023-02-18T17:43:15;8.83;;;4.00;;
21416;SDS011;10869;52.238;10.716;2023-02-18T17:45:48;15.33;;;5.43;;
21416;SDS011;10869;52.238;10.716;2023-02-18T17:48:19;13.77;;;4.23;;
21416;SDS011;10869;52.238;10.716;2023-02-18T17:50:45;11.93;;;4.17;;
21416;SDS011;10869;52.238;10.716;2023-02-18T17:53:11;14.67;;;5.93;;
21416;SDS011;10869;52.238;10.716;2023-02-18T17:55:38;16.00;;;8.57;;
21416;SDS011;10869;52.238;10.716;2023-02-18T18:01:27;14.17;;;6.43;;
21416;SDS011;10869;52.238;10.716;2023-02-18T18:03:53;15.47;;;6.37;;
21416;SDS011;10869;52.238;10.716;2023-02-18T18:13:21;11.90;;;5.60;;
21416;SDS011;10869;52.238;10.716;2023-02-18T18:19:11;17.27;;;7.93;;
21416;SDS011;10869;52.238;10.716;2023-02-18T18:24:58;10.97;;;4.63;;
21416;SDS011;10869;52.238;10.716;2023-02-18T18:27:27;10.77;;;5.50;;
21416;SDS011;10869;52.238;10.716;2023-02-18T18:29:56;11.60;;;5.10;;
21416;SDS011;10869;52.238;10.716;2023-02-18T18:32:21;15.07;;;4.60;;
21416;SDS011;10869;52.238;10.716;2023-02-18T18:34:47;15.00;;;6.33;;
21416;SDS011;10869;52.238;10.716;2023-02-18T18:37:13;18.97;;;5.20;;
21416;SDS011;10869;52.238;10.716;2023-02-18T18:39:39;12.50;;;5.40;;
21416;SDS011;10869;52.238;10.716;2023-02-18T18:44:53;11.30;;;4.33;;
21416;SDS011;10869;52.238;10.716;2023-02-18T18:50:54;10.83;;;3.43;;
21416;SDS011;10869;52.238;10.716;2023-02-18T18:55:54;13.77;;;4.03;;
21416;SDS011;10869;52.238;10.716;2023-02-18T18:58:25;12.50;;;4.03;;
21416;SDS011;10869;52.238;10.716;2023-02-18T19:00:55;10.77;;;4.17;;
21416;SDS011;10869;52.238;10.716;2023-02-18T19:06:44;15.87;;;5.03;;
21416;SDS011;10869;52.238;10.716;2023-02-18T19:16:05;13.67;;;5.23;;
21416;SDS011;10869;52.238;10.716;2023-02-18T19:18:52;13.23;;;4.27;;
21416;SDS011;10869;52.238;10.716;2023-02-18T19:24:31;12.90;;;4.50;;
21416;SDS011;10869;52.238;10.716;2023-02-18T19:26:57;16.67;;;5.07;;
21416;SDS011;10869;52.238;10.716;2023-02-18T19:29:23;11.53;;;4.27;;
21416;SDS011;10869;52.238;10.716;2023-02-18T19:31:49;13.73;;;4.43;;
21416;SDS011;10869;52.238;10.716;2023-02-18T19:34:15;9.83;;;3.50;;
21416;SDS011;10869;52.238;10.716;2023-02-18T19:36:40;11.27;;;3.70;;
21416;SDS011;10869;52.238;10.716;2023-02-18T19:39:09;10.33;;;3.30;;
21416;SDS011;10869;52.238;10.716;2023-02-18T19:41:34;12.07;;;3.27;;
21416;SDS011;10869;52.238;10.716;2023-02-18T19:44:00;10.73;;;4.00;;
21416;SDS011;10869;52.238;10.716;2023-02-18T19:46:26;10.87;;;3.50;;
21416;SDS011;10869;52.238;10.716;2023-02-18T19:48:52;13.57;;;3.37;;
21416;SDS011;10869;52.238;10.716;2023-02-18T19:51:27;18.50;;;5.97;;
21416;SDS011;10869;52.238;10.716;2023-02-18T19:54:30;9.23;;;2.97;;
21416;SDS011;10869;52.238;10.716;2023-02-18T19:59:51;16.27;;;6.23;;
21416;SDS011;10869;52.238;10.716;2023-02-18T20:02:18;23.37;;;5.37;;
21416;SDS011;10869;52.238;10.716;2023-02-18T20:04:46;14.80;;;4.80;;
21416;SDS011;10869;52.238;10.716;2023-02-18T20:07:12;10.30;;;4.27;;
21416;SDS011;10869;52.238;10.716;2023-02-18T20:09:39;15.57;;;4.63;;
21416;SDS011;10869;52.238;10.716;2023-02-18T20:14:54;13.07;;;4.03;;
21416;SDS011;10869;52.238;10.716;2023-02-18T20:17:20;13.10;;;3.80;;
21416;SDS011;10869;52.238;10.716;2023-02-18T20:19:46;9.57;;;3.03;;
21416;SDS011;10869;52.238;10.716;2023-02-18T20:22:12;13.70;;;3.90;;
21416;SDS011;10869;52.238;10.716;2023-02-18T20:24:38;12.43;;;3.40;;
21416;SDS011;10869;52.238;10.716;2023-02-18T20:27:05;9.43;;;2.90;;
21416;SDS011;10869;52.238;10.716;2023-02-18T20:32:53;13.17;;;4.50;;
21416;SDS011;10869;52.238;10.716;2023-02-18T20:35:28;8.27;;;2.40;;
21416;SDS011;10869;52.238;10.716;2023-02-18T20:37:54;11.33;;;3.53;;
21416;SDS011;10869;52.238;10.716;2023-02-18T20:40:19;9.57;;;3.43;;
21416;SDS011;10869;52.238;10.716;2023-02-18T20:49:24;15.67;;;3.50;;
21416;SDS011;10869;52.238;10.716;2023-02-18T20:51:50;10.63;;;3.63;;
21416;SDS011;10869;52.238;10.716;2023-02-18T20:54:16;20.93;;;7.10;;
21416;SDS011;10869;52.238;10.716;2023-02-18T20:56:47;14.07;;;4.43;;
21416;SDS011;10869;52.238;10.716;2023-02-18T20:59:14;12.73;;;3.87;;
21416;SDS011;10869;52.238;10.716;2023-02-18T21:01:43;12.83;;;3.37;;
21416;SDS011;10869;52.238;10.716;2023-02-18T21:07:32;11.40;;;2.77;;
21416;SDS011;10869;52.238;10.716;2023-02-18T21:09:57;13.37;;;3.50;;
21416;SDS011;10869;52.238;10.716;2023-02-18T21:19:09;14.13;;;3.20;;
21416;SDS011;10869;52.238;10.716;2023-02-18T21:21:39;13.07;;;3.20;;
21416;SDS011;10869;52.238;10.716;2023-02-18T21:24:06;11.03;;;2.43;;
21416;SDS011;10869;52.238;10.716;2023-02-18T21:26:32;18.67;;;4.00;;
21416;SDS011;10869;52.238;10.716;2023-02-18T21:32:20;10.97;;;2.73;;
21416;SDS011;10869;52.238;10.716;2023-02-18T21:40:39;15.03;;;3.00;;
21416;SDS011;10869;52.238;10.716;2023-02-18T21:43:05;13.03;;;3.20;;
21416;SDS011;10869;52.238;10.716;2023-02-18T21:45:30;13.10;;;3.00;;
21416;SDS011;10869;52.238;10.716;2023-02-18T21:47:57;14.33;;;4.00;;
21416;SDS011;10869;52.238;10.716;2023-02-18T21:50:43;9.00;;;3.17;;
21416;SDS011;10869;52.238;10.716;2023-02-18T21:53:09;12.37;;;3.47;;
21416;SDS011;10869;52.238;10.716;2023-02-18T21:55:34;10.07;;;3.23;;
21416;SDS011;10869;52.238;10.716;2023-02-18T21:58:00;7.63;;;2.70;;
21416;SDS011;10869;52.238;10.716;2023-02-18T22:00:26;8.10;;;2.60;;
21416;SDS011;10869;52.238;10.716;2023-02-18T22:02:52;7.43;;;2.63;;
21416;SDS011;10869;52.238;10.716;2023-02-18T22:05:19;7.13;;;2.20;;
21416;SDS011;10869;52.238;10.716;2023-02-18T22:07:49;6.77;;;2.77;;
21416;SDS011;10869;52.238;10.716;2023-02-18T22:10:15;8.17;;;2.77;;
21416;SDS011;10869;52.238;10.716;2023-02-18T22:12:42;8.53;;;2.73;;
21416;SDS011;10869;52.238;10.716;2023-02-18T22:15:08;5.27;;;2.40;;
21416;SDS011;10869;52.238;10.716;2023-02-18T22:17:34;8.47;;;3.33;;
21416;SDS011;10869;52.238;10.716;2023-02-18T22:20:00;7.40;;;3.10;;
21416;SDS011;10869;52.238;10.716;2023-02-18T22:22:26;13.23;;;3.83;;
21416;SDS011;10869;52.238;10.716;2023-02-18T22:24:52;10.17;;;3.93;;
21416;SDS011;10869;52.238;10.716;2023-02-18T22:27:18;10.00;;;4.20;;
21416;SDS011;10869;52.238;10.716;2023-02-18T22:29:44;13.20;;;4.07;;
21416;SDS011;10869;52.238;10.716;2023-02-18T22:32:11;10.00;;;4.27;;
21416;SDS011;10869;52.238;10.716;2023-02-18T22:34:37;12.10;;;4.50;;
21416;SDS011;10869;52.238;10.716;2023-02-18T22:37:03;16.27;;;7.17;;
21416;SDS011;10869;52.238;10.716;2023-02-18T22:39:29;11.50;;;5.97;;
21416;SDS011;10869;52.238;10.716;2023-02-18T22:41:55;13.57;;;5.40;;
21416;SDS011;10869;52.238;10.716;2023-02-18T22:44:21;15.90;;;6.47;;
21416;SDS011;10869;52.238;10.716;2023-02-18T22:46:48;10.93;;;5.13;;
21416;SDS011;10869;52.238;10.716;2023-02-18T22:49:14;12.93;;;5.73;;
21416;SDS011;10869;52.238;10.716;2023-02-18T22:51:41;10.87;;;4.80;;
21416;SDS011;10869;52.238;10.716;2023-02-18T22:54:12;17.90;;;5.77;;
21416;SDS011;10869;52.238;10.716;2023-02-18T22:56:39;12.53;;;5.67;;
21416;SDS011;10869;52.238;10.716;2023-02-18T22:59:06;11.77;;;5.40;;
21416;SDS011;10869;52.238;10.716;2023-02-18T23:01:33;17.43;;;6.50;;
21416;SDS011;10869;52.238;10.716;2023-02-18T23:04:11;13.87;;;7.50;;
21416;SDS011;10869;52.238;10.716;2023-02-18T23:06:38;11.47;;;6.20;;
21416;SDS011;10869;52.238;10.716;2023-02-18T23:09:06;17.83;;;7.13;;
21416;SDS011;10869;52.238;10.716;2023-02-18T23:11:33;22.63;;;6.63;;
21416;SDS011;10869;52.238;10.716;2023-02-18T23:13:59;17.80;;;6.60;;
21416;SDS011;10869;52.238;10.716;2023-02-18T23:17:04;13.13;;;4.77;;
21416;SDS011;10869;52.238;10.716;2023-02-18T23:22:15;15.53;;;6.30;;
21416;SDS011;10869;52.238;10.716;2023-02-18T23:24:43;11.27;;;6.80;;
21416;SDS011;10869;52.238;10.716;2023-02-18T23:27:11;14.23;;;6.90;;
21416;SDS011;10869;52.238;10.716;2023-02-18T23:29:38;17.30;;;7.30;;
21416;SDS011;10869;52.238;10.716;2023-02-18T23:32:04;15.87;;;7.53;;
21416;SDS011;10869;52.238;10.716;2023-02-18T23:34:30;19.63;;;8.87;;
21416;SDS011;10869;52.238;10.716;2023-02-18T23:36:56;16.87;;;7.60;;
21416;SDS011;10869;52.238;10.716;2023-02-18T23:39:22;14.60;;;7.97;;
21416;SDS011;10869;52.238;10.716;2023-02-18T23:41:49;16.63;;;7.37;;
21416;SDS011;10869;52.238;10.716;2023-02-18T23:44:17;16.63;;;7.13;;
21416;SDS011;10869;52.238;10.716;2023-02-18T23:46:44;14.20;;;8.40;;
21416;SDS011;10869;52.238;10.716;2023-02-18T23:49:13;15.43;;;7.33;;
21416;SDS011;10869;52.238;10.716;2023-02-18T23:51:43;17.73;;;7.60;;